Watertown Regional Airport
KATY : now visible

Airfield :











YOU CAN JOIN US ON...

 
LOGIN :

Register | Disclaimer

   EN    FR    IT 

 









Legend :    VFR   Marginal VFR   IFR   Intensive IFR   Very Intensive IFR
Visi :
Ceiling :
>= 8 km
>= 3000ft
5 to 8 km
1000 to 3000 ft
1500m to 5 km
500 to 1000 ft
800 to 1500m
200 to 500 ft
< 800m
< 200 ft
Symbols :   Thunderstorms  Fog  Heavy snow  Heavy precipitations  Wind > 20 kt






- Airport Elevation : 1749 ft
- IATA code : ATY


KATY - Watertown Regional

CURRENT METAR :
  • 220653Z AUTO 34004KT 10SM CLR M10/M12 A3021 RMK AO2 SLP260 I1000 T11001117

EXPIRED METARs :
  • 220553Z AUTO 00000KT 10SM CLR M09/M10 A3021 RMK AO2 SLP259 I1000 I6000 T10891100 11072 21094 400061094 51004
  • 220453Z AUTO 32004KT 10SM CLR M09/M11 A3021 RMK AO2 SLP258 T10891106

TAF KATY
Valid from the 22 at 06:00 until the 23 at 06:00 UTC


220520Z 2206/2306 VRB03KT P6SM SKC
FM221700 22011G17KT P6SM SKC
FM230100 20011G17KT P6SM SKC



MET'MAP, your aeronautical weather chart ! - Copyright ORBIFLY December 2007 - Disclaimer

ORBIFLY MET'MAP TEAM :

Programming & Development : Alexandra Zaïnal
Concept & Development : Baudouin d'Aumeries
Co-Development & Prog : Marc-Olivier Méhu
Technical & hardware support : Manuel Goepfert

Contact : metmap@orbifly.com




SOURCES & CREDITS :

   NOAA       Earth
Advisory